createdAt,value
2023-03-06T00:00:00.211Z,99980.31
2023-03-06T00:02:26.800Z,99979.72
2023-03-06T00:04:53.266Z,99983.06
2023-03-06T00:07:19.839Z,99983.09
2023-03-06T00:09:46.453Z,99982.00
2023-03-06T00:12:12.944Z,99984.47
2023-03-06T00:14:39.502Z,99981.66
2023-03-06T00:17:07.312Z,99980.22
2023-03-06T00:19:33.858Z,99974.00
2023-03-06T00:22:00.367Z,99973.38
2023-03-06T00:24:27.521Z,99966.59
2023-03-06T00:26:54.009Z,99970.13
2023-03-06T00:29:20.489Z,99965.88
2023-03-06T00:31:47.240Z,99962.75
2023-03-06T00:34:15.303Z,99967.19
2023-03-06T00:36:41.828Z,99953.94
2023-03-06T00:39:08.480Z,99955.53
2023-03-06T00:41:35.125Z,99953.59
2023-03-06T00:44:01.586Z,99952.91
2023-03-06T00:46:28.116Z,99951.53
2023-03-06T00:48:54.586Z,99949.59
2023-03-06T00:51:22.546Z,99946.72
2023-03-06T00:53:49.112Z,99948.16
2023-03-06T00:56:15.732Z,99954.59
2023-03-06T00:58:42.314Z,99949.84
2023-03-06T01:01:09.032Z,99944.69
2023-03-06T01:03:35.540Z,99942.66
2023-03-06T01:06:02.046Z,99944.03
2023-03-06T01:08:29.903Z,99943.06
2023-03-06T01:10:56.528Z,99940.59
2023-03-06T01:13:23.120Z,99941.81
2023-03-06T01:15:49.674Z,99939.16
2023-03-06T01:18:16.217Z,99938.22
2023-03-06T01:20:42.662Z,99928.84
2023-03-06T01:23:09.214Z,99930.59
2023-03-06T01:25:37.014Z,99928.03
2023-03-06T01:28:03.585Z,99919.47
2023-03-06T01:30:30.077Z,99927.75
2023-03-06T01:32:56.610Z,99922.63
2023-03-06T01:35:23.215Z,99915.94
2023-03-06T01:37:49.742Z,99909.72
2023-03-06T01:40:16.269Z,99915.00
2023-03-06T01:42:46.367Z,99918.50
2023-03-06T01:45:33.214Z,99909.66
2023-03-06T01:47:59.753Z,99904.75
2023-03-06T01:50:26.440Z,99903.91
2023-03-06T01:52:57.249Z,99896.16
2023-03-06T01:55:28.859Z,99896.88
2023-03-06T01:58:00.212Z,99897.59
2023-03-06T02:00:28.743Z,99899.47
2023-03-06T02:03:00.518Z,99882.34
2023-03-06T02:05:27.275Z,99882.34
2023-03-06T02:07:54.451Z,99883.91
2023-03-06T02:10:21.700Z,99881.22
2023-03-06T02:12:50.222Z,99874.34
2023-03-06T02:15:21.923Z,99873.94
2023-03-06T02:17:49.951Z,99868.06
2023-03-06T02:20:24.638Z,99861.00
2023-03-06T02:22:57.904Z,99868.63
2023-03-06T02:25:33.314Z,99865.88
2023-03-06T02:28:00.518Z,99857.81
2023-03-06T02:30:28.535Z,99857.19
2023-03-06T02:32:55.624Z,99850.19
2023-03-06T02:35:24.040Z,99853.72
2023-03-06T02:37:51.318Z,99855.47
2023-03-06T02:40:20.566Z,99847.94
2023-03-06T02:42:51.103Z,99844.22
2023-03-06T02:45:22.758Z,99848.50
2023-03-06T02:47:49.240Z,99844.69
2023-03-06T02:50:16.137Z,99844.81
2023-03-06T02:52:42.637Z,99838.06
2023-03-06T02:55:09.412Z,99834.41
2023-03-06T02:57:35.930Z,99834.56
2023-03-06T03:00:04.468Z,99829.19
2023-03-06T03:02:30.971Z,99824.38
2023-03-06T03:04:57.526Z,99827.94
2023-03-06T03:07:24.115Z,99818.34
2023-03-06T03:09:50.605Z,99821.03
2023-03-06T03:12:17.132Z,99821.31
2023-03-06T03:14:43.737Z,99825.81
2023-03-06T03:17:11.637Z,99814.66
2023-03-06T03:19:38.159Z,99809.56
2023-03-06T03:22:04.825Z,99802.78
2023-03-06T03:24:31.933Z,99792.53
2023-03-06T03:26:58.693Z,99794.75
2023-03-06T03:29:25.365Z,99795.13
2023-03-06T03:31:51.870Z,99801.22
2023-03-06T03:34:19.841Z,99805.47
2023-03-06T03:36:46.641Z,99801.78
2023-03-06T03:39:13.292Z,99795.75
2023-03-06T03:41:39.833Z,99787.22
2023-03-06T03:44:06.315Z,99778.63
2023-03-06T03:46:33.045Z,99787.91
2023-03-06T03:48:59.597Z,99785.78
2023-03-06T03:51:27.470Z,99781.25
2023-03-06T03:53:54.176Z,99783.91
2023-03-06T03:56:20.660Z,99785.44
2023-03-06T03:58:47.174Z,99776.19
2023-03-06T04:01:13.904Z,99778.25
2023-03-06T04:03:40.408Z,99778.59
2023-03-06T04:06:07.421Z,99775.53
2023-03-06T04:08:35.334Z,99771.94
2023-03-06T04:11:01.958Z,99773.28
2023-03-06T04:13:28.789Z,99771.03
2023-03-06T04:15:56.297Z,99765.13
2023-03-06T04:18:23.792Z,99761.09
2023-03-06T04:20:50.772Z,99756.50
2023-03-06T04:23:18.863Z,99761.53
2023-03-06T04:25:47.168Z,99759.72
2023-03-06T04:28:14.410Z,99751.47
2023-03-06T04:30:41.215Z,99758.41
2023-03-06T04:33:07.881Z,99748.47
2023-03-06T04:35:34.470Z,99755.41
2023-03-06T04:38:01.039Z,99747.47
2023-03-06T04:40:29.730Z,99743.03
2023-03-06T04:42:59.363Z,99740.13
2023-03-06T04:45:27.696Z,99745.88
2023-03-06T04:47:54.842Z,99753.81
2023-03-06T04:50:22.722Z,99746.59
2023-03-06T04:52:49.685Z,99742.34
2023-03-06T04:55:17.785Z,99739.66
2023-03-06T04:57:46.255Z,99739.66
2023-03-06T05:00:17.960Z,99738.34
2023-03-06T05:02:44.563Z,99742.88
2023-03-06T05:05:12.057Z,99735.13
2023-03-06T05:07:39.367Z,99742.03
2023-03-06T05:10:07.927Z,99742.34
2023-03-06T05:12:35.768Z,99738.91
2023-03-06T05:15:02.306Z,99743.59
2023-03-06T05:17:30.198Z,99738.91
2023-03-06T05:19:56.685Z,99748.66
2023-03-06T05:22:23.622Z,99749.88
2023-03-06T05:24:50.217Z,99748.34
2023-03-06T05:27:16.988Z,99740.97
2023-03-06T05:29:43.649Z,99750.19
2023-03-06T05:32:10.382Z,99752.09
2023-03-06T05:34:39.369Z,99749.09
2023-03-06T05:37:05.906Z,99755.56
2023-03-06T05:39:32.391Z,99753.25
2023-03-06T05:41:58.901Z,99751.34
2023-03-06T05:44:29.978Z,99756.50
2023-03-06T05:46:56.469Z,99747.97
2023-03-06T05:49:22.963Z,99742.34
2023-03-06T05:51:50.830Z,99749.03
2023-03-06T05:54:17.439Z,99746.41
2023-03-06T05:56:43.933Z,99742.81
2023-03-06T05:59:10.567Z,99736.59
2023-03-06T06:01:37.217Z,99729.03
2023-03-06T06:04:03.773Z,99734.06
2023-03-06T06:06:30.280Z,99728.78
2023-03-06T06:08:58.128Z,99727.47
2023-03-06T06:11:24.627Z,99725.78
2023-03-06T06:13:51.183Z,99723.75
2023-03-06T06:16:17.690Z,99728.28
2023-03-06T06:18:44.303Z,99724.69
2023-03-06T06:21:12.727Z,99730.84
2023-03-06T06:23:39.216Z,99733.00
2023-03-06T06:26:09.375Z,99732.53
2023-03-06T06:28:36.001Z,99732.53
2023-03-06T06:31:08.025Z,99734.81
2023-03-06T06:33:34.798Z,99731.16
2023-03-06T06:36:01.460Z,99730.22
2023-03-06T06:38:28.014Z,99735.53
2023-03-06T06:41:27.125Z,99734.75
2023-03-06T06:43:42.438Z,99735.28
2023-03-06T06:46:36.501Z,99739.97
2023-03-06T06:48:55.402Z,99744.34
2023-03-06T06:51:22.517Z,99741.34
2023-03-06T06:53:51.105Z,99742.41
2023-03-06T06:56:18.198Z,99741.97
2023-03-06T06:58:46.064Z,99740.38
2023-03-06T07:01:13.762Z,99749.50
2023-03-06T07:03:40.986Z,99752.09
2023-03-06T07:06:07.596Z,99750.78
2023-03-06T07:08:34.456Z,99751.88
2023-03-06T07:11:05.747Z,99753.94
2023-03-06T07:13:32.387Z,99756.94
2023-03-06T07:16:00.356Z,99763.28
2023-03-06T07:18:27.114Z,99766.22
2023-03-06T07:20:53.686Z,99776.81
2023-03-06T07:23:20.228Z,99776.19
2023-03-06T07:25:46.872Z,99774.13
2023-03-06T07:28:13.805Z,99782.50
2023-03-06T07:30:40.684Z,99779.50
2023-03-06T07:33:09.266Z,99773.16
2023-03-06T07:35:36.607Z,99777.41
2023-03-06T07:38:03.173Z,99775.50
2023-03-06T07:40:29.716Z,99771.59
2023-03-06T07:43:09.239Z,99785.16
2023-03-06T07:45:39.807Z,99781.63
2023-03-06T07:48:07.804Z,99772.34
2023-03-06T07:50:34.552Z,99783.88
2023-03-06T07:53:01.132Z,99781.41
2023-03-06T07:55:27.916Z,99779.41
2023-03-06T07:57:54.609Z,99783.59
2023-03-06T08:00:21.831Z,99776.34
2023-03-06T08:02:48.532Z,99778.13
2023-03-06T08:05:17.263Z,99779.34
2023-03-06T08:07:44.695Z,99781.56
2023-03-06T08:10:14.602Z,99786.25
2023-03-06T08:12:41.299Z,99778.94
2023-03-06T08:15:10.030Z,99783.06
2023-03-06T08:17:36.975Z,99777.50
2023-03-06T08:20:04.046Z,99783.47
2023-03-06T08:22:32.046Z,99789.94
2023-03-06T08:24:58.596Z,99784.03
2023-03-06T08:27:25.146Z,99794.22
2023-03-06T08:29:51.860Z,99796.44
2023-03-06T08:32:18.782Z,99794.16
2023-03-06T08:34:45.368Z,99797.53
2023-03-06T08:37:11.957Z,99794.06
2023-03-06T08:39:39.885Z,99793.06
2023-03-06T08:42:06.727Z,99798.41
2023-03-06T08:44:33.280Z,99805.09
2023-03-06T08:47:00.102Z,99801.09
2023-03-06T08:49:26.666Z,99799.81
2023-03-06T08:51:53.214Z,99798.97
2023-03-06T08:54:20.151Z,99794.63
2023-03-06T08:56:48.032Z,99787.00
2023-03-06T08:59:14.811Z,99793.44
2023-03-06T09:01:41.459Z,99779.94
2023-03-06T09:04:10.243Z,99779.38
2023-03-06T09:06:39.733Z,99769.13
2023-03-06T09:09:07.347Z,99771.88
2023-03-06T09:11:34.227Z,99771.00
2023-03-06T09:14:02.506Z,99767.50
2023-03-06T09:16:29.229Z,99764.31
2023-03-06T09:18:55.889Z,99769.38
2023-03-06T09:21:23.015Z,99758.25
2023-03-06T09:23:50.122Z,99767.41
2023-03-06T09:26:16.884Z,99766.38
2023-03-06T09:28:43.408Z,99770.19
2023-03-06T09:31:13.571Z,99766.25
2023-03-06T09:33:40.292Z,99765.56
2023-03-06T09:36:10.334Z,99763.84
2023-03-06T09:38:36.897Z,99745.34
2023-03-06T09:43:37.943Z,99761.63
2023-03-06T09:46:18.312Z,99760.03
2023-03-06T09:48:55.242Z,99754.16
2023-03-06T09:51:28.515Z,99746.72
2023-03-06T09:54:02.239Z,99752.06
2023-03-06T09:56:33.183Z,99740.69
2023-03-06T09:59:06.821Z,99743.34
2023-03-06T10:01:39.871Z,99741.88
2023-03-06T10:04:19.261Z,99750.34
2023-03-06T10:06:48.243Z,99743.69
2023-03-06T10:09:18.946Z,99747.47
2023-03-06T10:11:51.510Z,99751.56
2023-03-06T10:14:24.655Z,99748.41
2023-03-06T10:16:52.505Z,99749.88
2023-03-06T10:19:20.713Z,99752.47
2023-03-06T10:21:56.274Z,99761.09
2023-03-06T10:24:33.692Z,99751.84
2023-03-06T10:27:10.359Z,99759.50
2023-03-06T10:30:01.682Z,99759.31
2023-03-06T10:32:48.265Z,99756.53
2023-03-06T10:35:19.294Z,99753.13
2023-03-06T10:37:47.248Z,99755.13
2023-03-06T10:40:18.506Z,99758.69
2023-03-06T10:42:45.105Z,99761.88
2023-03-06T10:45:13.621Z,99759.88
2023-03-06T10:47:43.195Z,99754.03
2023-03-06T10:50:23.462Z,99751.47
2023-03-06T10:53:00.658Z,99750.94
2023-03-06T10:55:29.952Z,99754.34
2023-03-06T10:57:56.980Z,99751.66
2023-03-06T11:00:28.298Z,99750.25
2023-03-06T11:03:13.881Z,99748.56
2023-03-06T11:05:40.670Z,99747.28
2023-03-06T11:08:21.001Z,99751.94
2023-03-06T11:10:55.815Z,99752.97
2023-03-06T11:13:24.135Z,99759.16
2023-03-06T11:15:57.386Z,99753.56
2023-03-06T11:18:29.551Z,99747.13
2023-03-06T11:20:56.090Z,99745.03
2023-03-06T11:23:32.812Z,99738.38
2023-03-06T11:26:10.836Z,99739.38
2023-03-06T11:28:40.788Z,99738.84
2023-03-06T11:31:13.949Z,99731.81
2023-03-06T11:33:47.297Z,99741.97
2023-03-06T11:36:18.467Z,99735.91
2023-03-06T11:38:49.425Z,99724.50
2023-03-06T11:41:23.925Z,99736.06
2023-03-06T11:43:58.254Z,99732.44
2023-03-06T11:46:28.321Z,99730.09
2023-03-06T11:49:02.228Z,99726.88
2023-03-06T11:51:30.243Z,99729.91
2023-03-06T11:54:00.127Z,99718.47
2023-03-06T11:56:36.139Z,99720.19
2023-03-06T11:59:24.033Z,99731.53
2023-03-06T12:02:02.061Z,99718.56
2023-03-06T12:04:47.128Z,99720.53
2023-03-06T12:07:22.347Z,99722.94
2023-03-06T12:09:55.810Z,99718.72
2023-03-06T12:12:50.679Z,99721.03
2023-03-06T12:15:26.978Z,99726.84
2023-03-06T12:18:06.624Z,99720.06
2023-03-06T12:20:46.294Z,99719.00
2023-03-06T12:23:30.236Z,99717.84
2023-03-06T12:26:02.193Z,99715.84
2023-03-06T12:28:41.847Z,99710.34
2023-03-06T12:31:23.770Z,99713.09
2023-03-06T12:34:01.729Z,99710.16
2023-03-06T12:36:38.655Z,99708.72
2023-03-06T12:39:10.024Z,99702.69
2023-03-06T12:41:47.382Z,99696.72
2023-03-06T12:44:29.793Z,99691.59
2023-03-06T12:47:02.080Z,99692.56
2023-03-06T12:49:32.919Z,99689.84
2023-03-06T12:52:04.666Z,99689.03
2023-03-06T12:54:36.273Z,99687.81
2023-03-06T12:57:05.736Z,99687.66
2023-03-06T12:59:39.030Z,99677.19
2023-03-06T13:02:26.677Z,99672.66
2023-03-06T13:05:21.505Z,99677.81
2023-03-06T13:08:02.216Z,99681.22
2023-03-06T13:10:31.872Z,99679.75
2023-03-06T13:13:00.466Z,99679.00
2023-03-06T13:15:38.289Z,99676.91
2023-03-06T13:18:46.507Z,99669.84
2023-03-06T13:21:37.889Z,99664.78
2023-03-06T13:24:13.698Z,99669.66
2023-03-06T13:26:50.832Z,99663.19
2023-03-06T13:29:37.129Z,99655.69
2023-03-06T13:32:07.260Z,99663.75
2023-03-06T13:34:37.557Z,99668.84
2023-03-06T13:37:28.945Z,99663.16
2023-03-06T13:40:15.384Z,99662.81
2023-03-06T13:45:38.904Z,99662.72
2023-03-06T13:48:44.170Z,99650.88
2023-03-06T13:50:53.302Z,99651.94
2023-03-06T13:53:44.885Z,99645.94
2023-03-06T13:56:39.291Z,99643.72
2023-03-06T13:59:24.152Z,99652.56
2023-03-06T14:02:07.261Z,99651.75
2023-03-06T14:04:38.444Z,99643.78
2023-03-06T14:07:21.990Z,99641.19
2023-03-06T14:09:59.611Z,99645.25
2023-03-06T14:12:32.689Z,99644.63
2023-03-06T14:15:03.676Z,99650.03
2023-03-06T14:17:33.093Z,99645.88
2023-03-06T14:20:04.296Z,99643.78
2023-03-06T14:22:31.095Z,99640.56
2023-03-06T14:25:02.826Z,99647.56
2023-03-06T14:27:41.965Z,99646.47
2023-03-06T14:30:12.199Z,99643.94
2023-03-06T14:32:40.730Z,99635.34
2023-03-06T14:35:21.642Z,99640.22
2023-03-06T14:37:49.162Z,99643.88
2023-03-06T14:40:18.699Z,99644.78
2023-03-06T14:42:45.381Z,99632.97
2023-03-06T14:45:16.494Z,99632.75
2023-03-06T14:47:52.289Z,99626.06
2023-03-06T14:50:21.174Z,99624.41
2023-03-06T14:52:48.939Z,99617.56
2023-03-06T14:55:19.179Z,99624.41
2023-03-06T14:57:48.766Z,99613.41
2023-03-06T15:00:19.281Z,99615.88
2023-03-06T15:02:49.333Z,99612.94
2023-03-06T15:05:21.744Z,99606.25
2023-03-06T15:07:49.493Z,99608.63
2023-03-06T15:10:22.945Z,99610.22
2023-03-06T15:12:49.477Z,99610.25
2023-03-06T15:15:28.036Z,99599.78
2023-03-06T15:17:56.594Z,99602.56
2023-03-06T15:20:37.616Z,99599.50
2023-03-06T15:23:18.132Z,99591.16
2023-03-06T15:25:55.297Z,99594.00
2023-03-06T15:28:28.076Z,99591.22
2023-03-06T15:31:04.809Z,99586.94
2023-03-06T15:33:32.769Z,99585.72
2023-03-06T15:36:00.804Z,99584.25
2023-03-06T15:38:34.922Z,99587.41
2023-03-06T15:41:03.019Z,99578.63
2023-03-06T15:43:34.430Z,99572.50
2023-03-06T15:46:01.626Z,99569.81
2023-03-06T15:48:28.658Z,99570.72
2023-03-06T15:50:56.572Z,99575.22
2023-03-06T15:53:23.218Z,99569.13
2023-03-06T15:55:50.768Z,99567.56
2023-03-06T15:58:19.644Z,99561.75
2023-03-06T16:00:46.204Z,99559.81
2023-03-06T16:03:12.979Z,99556.66
2023-03-06T16:05:39.672Z,99565.72
2023-03-06T16:08:07.856Z,99556.84
2023-03-06T16:10:39.781Z,99549.81
2023-03-06T16:13:11.071Z,99543.59
2023-03-06T16:15:39.321Z,99542.72
2023-03-06T16:18:06.315Z,99539.81
2023-03-06T16:20:33.054Z,99535.78
2023-03-06T16:22:59.660Z,99518.50
2023-03-06T16:25:28.196Z,99521.97
2023-03-06T16:27:56.777Z,99519.88
2023-03-06T16:30:25.573Z,99522.66
2023-03-06T16:32:52.679Z,99514.06
2023-03-06T16:35:19.242Z,99512.19
2023-03-06T16:37:46.535Z,99510.91
2023-03-06T16:40:18.708Z,99516.44
2023-03-06T16:42:46.865Z,99518.69
2023-03-06T16:45:13.831Z,99512.75
2023-03-06T16:47:40.743Z,99513.50
2023-03-06T16:50:20.853Z,99507.41
2023-03-06T16:52:47.516Z,99505.63
2023-03-06T16:55:14.034Z,99508.94
2023-03-06T16:57:40.591Z,99503.53
2023-03-06T17:00:09.827Z,99502.19
2023-03-06T17:02:36.584Z,99504.47
2023-03-06T17:05:03.345Z,99494.53
2023-03-06T17:07:29.865Z,99496.53
2023-03-06T17:09:56.529Z,99490.63
2023-03-06T17:12:23.118Z,99491.94
2023-03-06T17:14:49.694Z,99493.41
2023-03-06T17:17:17.605Z,99498.19
2023-03-06T17:19:47.070Z,99490.22
2023-03-06T17:22:13.891Z,99487.84
2023-03-06T17:24:40.518Z,99484.34
2023-03-06T17:27:07.069Z,99493.44
2023-03-06T17:29:33.633Z,99495.69
2023-03-06T17:32:00.211Z,99491.47
2023-03-06T17:34:28.194Z,99507.88
2023-03-06T17:36:55.370Z,99498.81
2023-03-06T17:39:23.113Z,99505.72
2023-03-06T17:41:49.676Z,99505.31
2023-03-06T17:44:16.426Z,99498.41
2023-03-06T17:46:43.282Z,99500.13
2023-03-06T17:49:09.880Z,99498.91
2023-03-06T17:51:38.489Z,99496.94
2023-03-06T17:54:05.181Z,99495.97
2023-03-06T17:56:31.749Z,99492.88
2023-03-06T17:58:58.267Z,99488.28
2023-03-06T18:01:25.003Z,99489.41
2023-03-06T18:03:51.548Z,99492.09
2023-03-06T18:06:19.135Z,99494.25
2023-03-06T18:08:47.069Z,99485.38
2023-03-06T18:11:14.034Z,99496.19
2023-03-06T18:13:42.330Z,99482.31
2023-03-06T18:16:11.111Z,99484.16
2023-03-06T18:18:37.953Z,99487.09
2023-03-06T18:21:05.219Z,99488.16
2023-03-06T18:23:31.811Z,99488.47
2023-03-06T18:26:09.804Z,99491.56
2023-03-06T18:28:36.715Z,99489.53
2023-03-06T18:31:03.313Z,99486.38
2023-03-06T18:33:29.818Z,99491.50
2023-03-06T18:35:56.385Z,99486.91
2023-03-06T18:38:23.085Z,99481.91
2023-03-06T18:40:49.597Z,99480.25
2023-03-06T18:43:17.480Z,99470.59
2023-03-06T18:45:53.473Z,99477.25
2023-03-06T18:48:20.055Z,99480.25
2023-03-06T18:50:46.580Z,99476.13
2023-03-06T18:53:13.104Z,99471.25
2023-03-06T18:55:46.820Z,99472.13
2023-03-06T18:58:13.456Z,99472.22
2023-03-06T19:00:41.469Z,99467.59
2023-03-06T19:03:08.003Z,99475.47
2023-03-06T19:05:38.648Z,99466.47
2023-03-06T19:08:05.343Z,99466.59
2023-03-06T19:10:34.324Z,99465.34
2023-03-06T19:13:00.941Z,99464.75
2023-03-06T19:15:27.489Z,99462.50
2023-03-06T19:17:55.411Z,99467.16
2023-03-06T19:20:22.153Z,99464.16
2023-03-06T19:22:48.712Z,99469.16
2023-03-06T19:25:15.648Z,99468.06
2023-03-06T19:27:42.182Z,99465.75
2023-03-06T19:30:09.640Z,99464.75
2023-03-06T19:32:36.239Z,99464.75
2023-03-06T19:35:04.358Z,99458.47
2023-03-06T19:37:30.914Z,99454.22
2023-03-06T19:39:57.475Z,99454.19
2023-03-06T19:42:24.151Z,99453.09
2023-03-06T19:44:50.798Z,99445.34
2023-03-06T19:47:17.348Z,99444.75
2023-03-06T19:49:43.870Z,99446.44
2023-03-06T19:52:11.643Z,99440.69
2023-03-06T19:54:38.240Z,99449.72
2023-03-06T19:57:04.793Z,99449.16
2023-03-06T19:59:31.358Z,99451.84
2023-03-06T20:01:57.963Z,99443.91
2023-03-06T20:04:24.621Z,99448.41
2023-03-06T20:06:51.560Z,99448.09
2023-03-06T20:09:19.630Z,99449.03
2023-03-06T20:11:46.149Z,99447.72
2023-03-06T20:14:13.114Z,99435.41
2023-03-06T20:16:39.804Z,99436.06
2023-03-06T20:19:06.484Z,99431.13
2023-03-06T20:21:34.798Z,99427.84
2023-03-06T20:24:01.393Z,99429.50
2023-03-06T20:26:29.479Z,99425.56
2023-03-06T20:28:56.690Z,99419.03
2023-03-06T20:31:26.023Z,99416.88
2023-03-06T20:33:54.535Z,99412.78
2023-03-06T20:36:23.074Z,99417.53
2023-03-06T20:38:49.922Z,99411.41
2023-03-06T20:41:17.887Z,99420.28
2023-03-06T20:43:45.766Z,99408.66
2023-03-06T20:46:13.869Z,99408.97
2023-03-06T20:48:40.746Z,99412.59
2023-03-06T20:51:12.115Z,99414.50
2023-03-06T20:53:38.638Z,99413.50
2023-03-06T20:56:05.851Z,99408.91
2023-03-06T20:58:32.631Z,99407.44
2023-03-06T21:01:02.398Z,99416.34
2023-03-06T21:03:29.229Z,99417.06
2023-03-06T21:05:55.837Z,99414.34
2023-03-06T21:08:22.820Z,99414.50
2023-03-06T21:10:49.976Z,99407.84
2023-03-06T21:13:17.022Z,99402.78
2023-03-06T21:15:44.783Z,99407.66
2023-03-06T21:18:13.018Z,99398.47
2023-03-06T21:20:40.877Z,99402.41
2023-03-06T21:23:08.264Z,99390.97
2023-03-06T21:25:34.918Z,99387.22
2023-03-06T21:28:01.525Z,99378.44
2023-03-06T21:30:28.739Z,99390.50
2023-03-06T21:32:55.464Z,99385.31
2023-03-06T21:35:23.267Z,99387.47
2023-03-06T21:37:49.795Z,99380.09
2023-03-06T21:40:16.524Z,99374.59
2023-03-06T21:42:43.113Z,99382.78
2023-03-06T21:45:10.267Z,99377.41
2023-03-06T21:47:36.896Z,99374.75
2023-03-06T21:50:03.688Z,99375.44
2023-03-06T21:52:31.660Z,99374.75
2023-03-06T21:54:58.163Z,99374.91
2023-03-06T21:57:24.750Z,99377.06
2023-03-06T21:59:51.268Z,99363.41
2023-03-06T22:02:18.003Z,99362.03
2023-03-06T22:04:44.553Z,99372.41
2023-03-06T22:07:11.130Z,99359.91
2023-03-06T22:09:38.964Z,99366.16
2023-03-06T22:12:05.996Z,99369.31
2023-03-06T22:14:32.519Z,99366.25
2023-03-06T22:17:02.469Z,99354.31
2023-03-06T22:19:29.001Z,99352.03
2023-03-06T22:21:55.675Z,99357.53
2023-03-06T22:24:22.209Z,99346.88
2023-03-06T22:26:50.051Z,99329.13
2023-03-06T22:29:16.564Z,99341.91
2023-03-06T22:31:43.116Z,99341.84
2023-03-06T22:34:09.983Z,99337.88
2023-03-06T22:36:36.657Z,99338.47
2023-03-06T22:39:04.166Z,99336.63
2023-03-06T22:41:31.296Z,99333.09
2023-03-06T22:44:00.855Z,99336.84
2023-03-06T22:46:27.818Z,99322.41
2023-03-06T22:48:55.566Z,99329.59
2023-03-06T22:51:22.079Z,99329.44
2023-03-06T22:53:48.925Z,99327.91
2023-03-06T22:56:17.491Z,99320.19
2023-03-06T22:58:44.163Z,99319.88
2023-03-06T23:01:14.232Z,99319.72
2023-03-06T23:03:42.643Z,99321.09
2023-03-06T23:06:11.242Z,99314.00
2023-03-06T23:08:38.188Z,99306.69
2023-03-06T23:11:08.308Z,99300.91
2023-03-06T23:13:34.844Z,99296.84
2023-03-06T23:16:02.434Z,99298.06
2023-03-06T23:18:30.433Z,99296.13
2023-03-06T23:20:56.969Z,99286.72
2023-03-06T23:23:23.460Z,99287.34
2023-03-06T23:25:50.139Z,99294.06
2023-03-06T23:28:16.651Z,99282.22
2023-03-06T23:30:43.403Z,99288.66
2023-03-06T23:33:10.545Z,99292.63
2023-03-06T23:35:38.501Z,99289.63
2023-03-06T23:38:05.223Z,99290.25
2023-03-06T23:40:33.315Z,99284.81
2023-03-06T23:42:59.852Z,99280.38
2023-03-06T23:45:26.335Z,99281.59
2023-03-06T23:47:52.959Z,99291.09
2023-03-06T23:50:19.733Z,99281.59
2023-03-06T23:52:47.560Z,99278.47
2023-03-06T23:55:14.111Z,99274.41
2023-03-06T23:57:40.735Z,99269.72
